Time;durP1;ratioP1;P1;durP2;ratioP2;P2;SDS_P1;SDS_P2;PMS_P1;PMS_P2;Temp;Humidity;BMP_temperature;BMP_pressure;BME280_temperature;BME280_humidity;BME280_pressure;Samples;Min_cycle;Max_cycle;Signal;HPM_P1;HPM_P2
2022/12/02 00:00:50;;;;;;;32.70;19.57;;;7.50;94.20;;;;;;5094009;28;20483;-73
2022/12/02 00:03:22;;;;;;;32.43;19.73;;;7.50;94.10;;;;;;5093616;28;20463;-72
2022/12/02 00:05:50;;;;;;;37.27;19.60;;;7.50;94.20;;;;;;5093795;28;20420;-72
2022/12/02 00:08:20;;;;;;;38.30;20.87;;;7.40;94.20;;;;;;5094090;28;20458;-73
2022/12/02 00:10:48;;;;;;;38.27;22.03;;;7.50;94.30;;;;;;5093681;28;20433;-73
2022/12/02 00:13:23;;;;;;;39.00;22.37;;;7.50;94.30;;;;;;5093128;28;20462;-72
2022/12/02 00:15:54;;;;;;;37.87;22.03;;;7.50;94.20;;;;;;5093354;28;20456;-72
2022/12/02 00:18:22;;;;;;;37.33;24.00;;;7.50;94.10;;;;;;5093699;28;20443;-72
2022/12/02 00:20:49;;;;;;;40.60;23.30;;;7.50;94.10;;;;;;5095078;28;20464;-72
2022/12/02 00:23:16;;;;;;;40.50;24.70;;;7.50;94.20;;;;;;5095544;28;20453;-72
2022/12/02 00:25:46;;;;;;;41.93;25.13;;;7.50;94.20;;;;;;5094128;28;20447;-72
2022/12/02 00:28:13;;;;;;;48.17;24.60;;;7.40;94.20;;;;;;5093830;28;20448;-72
2022/12/02 00:30:40;;;;;;;47.50;25.00;;;7.40;94.20;;;;;;5093023;28;20792;-72
2022/12/02 00:33:07;;;;;;;45.10;25.03;;;7.40;94.10;;;;;;5093487;28;20473;-72
2022/12/02 00:35:36;;;;;;;41.07;23.57;;;7.40;94.10;;;;;;5093714;28;20440;-72
2022/12/02 00:38:03;;;;;;;38.20;22.83;;;7.30;93.90;;;;;;5092784;28;20456;-73
2022/12/02 00:40:30;;;;;;;45.60;25.57;;;7.40;94.10;;;;;;5093728;28;20458;-73
2022/12/02 00:46:30;;;;;;;43.33;22.43;;;7.40;94.20;;;;;;5093029;28;20479;-73
2022/12/02 00:48:27;;;;;;;46.40;24.03;;;7.30;94.40;;;;;;5093887;28;20452;-72
2022/12/02 00:50:56;;;;;;;44.70;24.57;;;7.30;94.50;;;;;;5076304;28;20992;-72
2022/12/02 00:53:22;;;;;;;54.30;26.00;;;7.30;94.50;;;;;;5093666;28;20465;-72
2022/12/02 00:55:50;;;;;;;45.77;25.73;;;7.30;94.50;;;;;;5093182;28;20425;-72
2022/12/02 00:58:17;;;;;;;39.10;23.37;;;7.20;94.50;;;;;;5092987;28;20449;-72
2022/12/02 01:00:44;;;;;;;42.60;24.53;;;7.20;94.50;;;;;;5092914;28;20428;-73
2022/12/02 01:03:11;;;;;;;46.93;25.60;;;7.20;94.40;;;;;;5092854;28;20463;-72
2022/12/02 01:05:38;;;;;;;43.00;23.97;;;7.30;94.40;;;;;;5092830;28;20452;-72
2022/12/02 01:08:06;;;;;;;43.57;24.80;;;7.30;94.30;;;;;;5093488;28;20954;-72
2022/12/02 01:10:33;;;;;;;45.60;25.30;;;7.30;94.20;;;;;;5092940;28;20449;-73
2022/12/02 01:13:00;;;;;;;45.80;24.63;;;7.30;94.10;;;;;;5093020;28;20480;-72
2022/12/02 01:15:26;;;;;;;41.20;24.37;;;7.30;94.10;;;;;;5093176;28;20448;-72
2022/12/02 01:17:53;;;;;;;47.50;24.87;;;7.30;94.10;;;;;;5092476;28;20450;-73
2022/12/02 01:20:20;;;;;;;48.73;25.23;;;7.30;94.00;;;;;;5092857;28;20560;-72
2022/12/02 01:22:47;;;;;;;46.30;25.80;;;7.30;94.20;;;;;;5092571;28;20488;-72
2022/12/02 01:25:15;;;;;;;44.07;26.33;;;7.30;94.30;;;;;;5096387;28;20504;-72
2022/12/02 01:27:41;;;;;;;49.23;25.97;;;7.20;94.20;;;;;;5096998;28;20445;-72
2022/12/02 01:30:09;;;;;;;49.53;27.27;;;7.20;94.30;;;;;;5096919;28;20459;-72
2022/12/02 01:32:36;;;;;;;46.27;24.90;;;7.20;94.30;;;;;;5096382;28;20471;-72
2022/12/02 01:35:03;;;;;;;43.60;26.20;;;7.20;94.20;;;;;;5096392;28;20452;-72
2022/12/02 01:37:29;;;;;;;49.50;27.23;;;7.20;94.10;;;;;;5096073;28;20456;-72
2022/12/02 01:39:56;;;;;;;55.77;26.50;;;7.20;94.10;;;;;;5096498;28;20455;-73
2022/12/02 01:42:24;;;;;;;47.80;24.93;;;7.20;94.10;;;;;;5096145;28;20497;-72
2022/12/02 01:44:51;;;;;;;44.60;25.10;;;7.20;94.10;;;;;;5095992;28;20452;-73
2022/12/02 01:47:18;;;;;;;45.53;25.93;;;7.20;94.10;;;;;;5096029;28;20946;-73
2022/12/02 01:49:45;;;;;;;48.10;25.17;;;7.20;94.20;;;;;;5096188;28;20464;-73
2022/12/02 01:52:12;;;;;;;48.90;28.73;;;7.20;94.20;;;;;;5095699;28;20468;-73
2022/12/02 01:54:41;;;;;;;49.57;26.40;;;7.20;94.20;;;;;;5096376;28;20428;-73
2022/12/02 01:57:12;;;;;;;57.23;29.37;;;7.20;94.20;;;;;;5096280;28;20444;-73
2022/12/02 01:59:41;;;;;;;50.37;25.83;;;7.20;94.10;;;;;;5096263;28;20457;-73
2022/12/02 02:02:24;;;;;;;48.17;26.20;;;7.20;94.10;;;;;;5098132;28;20479;-72
2022/12/02 02:04:51;;;;;;;51.07;27.03;;;7.20;94.00;;;;;;5100288;28;20432;-73
2022/12/02 02:07:18;;;;;;;50.87;27.70;;;7.20;94.00;;;;;;5096200;28;20819;-73
2022/12/02 02:09:44;;;;;;;51.40;28.90;;;7.10;94.10;;;;;;5096169;28;20447;-73
2022/12/02 02:12:11;;;;;;;54.97;28.93;;;7.10;94.00;;;;;;5095677;28;20472;-72
2022/12/02 02:14:39;;;;;;;49.33;26.90;;;7.10;93.90;;;;;;5096145;28;20512;-72
2022/12/02 02:17:06;;;;;;;50.80;26.93;;;7.20;94.00;;;;;;5095531;28;20447;-73
2022/12/02 02:19:33;;;;;;;50.40;29.63;;;7.20;94.20;;;;;;5095869;28;20712;-73
2022/12/02 02:22:06;;;;;;;45.87;25.63;;;7.20;94.10;;;;;;5095592;28;20484;-73
2022/12/02 02:24:34;;;;;;;49.23;26.50;;;7.20;94.00;;;;;;5093048;28;20436;-73
2022/12/02 02:27:01;;;;;;;53.10;28.63;;;7.20;94.00;;;;;;5093751;28;20442;-73
2022/12/02 02:29:28;;;;;;;59.63;28.73;;;7.10;94.20;;;;;;5093599;28;20437;-73
2022/12/02 02:31:55;;;;;;;55.13;29.07;;;7.10;94.20;;;;;;5092819;28;20440;-73
2022/12/02 02:34:22;;;;;;;50.43;27.33;;;7.10;94.20;;;;;;5093790;28;20524;-73
2022/12/02 02:36:49;;;;;;;47.03;26.40;;;7.10;94.20;;;;;;5094123;28;20449;-73
2022/12/02 02:39:15;;;;;;;48.00;25.93;;;7.10;94.30;;;;;;5092719;28;20452;-73
2022/12/02 02:41:44;;;;;;;48.40;27.00;;;7.10;94.30;;;;;;5092579;28;20496;-73
2022/12/02 02:44:11;;;;;;;46.07;25.87;;;7.10;94.30;;;;;;5092241;28;20484;-73
2022/12/02 02:46:37;;;;;;;53.50;26.63;;;7.10;94.40;;;;;;5092025;28;20425;-73
2022/12/02 02:49:04;;;;;;;44.00;23.37;;;7.10;94.40;;;;;;5092993;28;20450;-73
2022/12/02 02:51:31;;;;;;;37.00;21.87;;;7.00;94.30;;;;;;5092995;28;20451;-73
2022/12/02 02:53:58;;;;;;;40.27;22.93;;;7.00;94.40;;;;;;5092798;28;20468;-73
2022/12/02 02:56:25;;;;;;;37.80;21.63;;;7.00;94.30;;;;;;5091256;28;20429;-73
2022/12/02 02:58:55;;;;;;;40.70;21.97;;;7.10;94.60;;;;;;5091944;28;20955;-72
2022/12/02 03:01:27;;;;;;;41.33;22.60;;;7.10;93.90;;;;;;5092008;28;20563;-72
2022/12/02 03:03:56;;;;;;;40.17;22.53;;;7.00;93.90;;;;;;5091665;28;20483;-73
2022/12/02 03:06:24;;;;;;;36.83;20.87;;;7.00;93.90;;;;;;5092402;28;20449;-73
2022/12/02 03:08:52;;;;;;;34.43;19.60;;;7.00;93.90;;;;;;5073875;28;20452;-73
2022/12/02 03:11:19;;;;;;;38.53;21.73;;;7.00;93.90;;;;;;5091122;28;20458;-73
2022/12/02 03:13:48;;;;;;;35.60;20.73;;;7.00;93.70;;;;;;5090535;28;20472;-73
2022/12/02 03:16:19;;;;;;;36.50;21.20;;;7.00;93.50;;;;;;5091425;28;20444;-73
2022/12/02 03:18:47;;;;;;;36.07;22.17;;;7.00;93.50;;;;;;5091665;28;20409;-74
2022/12/02 03:21:15;;;;;;;31.53;19.73;;;7.00;93.40;;;;;;5090775;28;20465;-73
2022/12/02 03:23:42;;;;;;;36.43;21.33;;;7.00;93.70;;;;;;5090531;28;20478;-73
2022/12/02 03:26:10;;;;;;;33.53;20.13;;;7.00;93.40;;;;;;5090514;28;20452;-73
2022/12/02 03:28:37;;;;;;;36.37;20.47;;;7.00;93.40;;;;;;5090786;28;20430;-72
2022/12/02 03:31:04;;;;;;;30.70;19.60;;;7.00;93.40;;;;;;5089330;28;20468;-73
2022/12/02 03:33:33;;;;;;;31.30;19.30;;;7.00;93.30;;;;;;5089765;28;20457;-73
2022/12/02 03:36:00;;;;;;;32.40;19.43;;;7.00;93.30;;;;;;5089876;28;20441;-73
2022/12/02 03:38:27;;;;;;;29.37;21.03;;;7.00;93.30;;;;;;5089442;28;20452;-73
2022/12/02 03:40:55;;;;;;;33.50;19.00;;;7.00;93.30;;;;;;5089043;28;20453;-73
2022/12/02 03:43:21;;;;;;;35.60;20.63;;;7.00;93.20;;;;;;5088661;28;20492;-73
2022/12/02 03:45:48;;;;;;;35.63;21.37;;;7.00;93.30;;;;;;5089145;28;20463;-73
2022/12/02 03:48:20;;;;;;;35.23;21.37;;;7.00;93.40;;;;;;5088410;28;20483;-72
2022/12/02 03:50:49;;;;;;;36.10;20.53;;;7.00;93.40;;;;;;5088489;28;20444;-73
2022/12/02 03:53:16;;;;;;;41.37;22.67;;;7.00;93.40;;;;;;5070940;28;20464;-73
2022/12/02 03:55:43;;;;;;;40.57;21.27;;;7.00;93.40;;;;;;5088593;28;20447;-73
2022/12/02 03:58:10;;;;;;;41.20;21.80;;;7.00;93.40;;;;;;5088014;28;20456;-73
2022/12/02 04:00:37;;;;;;;43.60;24.03;;;7.00;93.40;;;;;;5088845;28;20447;-73
2022/12/02 04:03:05;;;;;;;45.17;23.20;;;7.00;93.40;;;;;;5088141;28;20492;-73
2022/12/02 04:05:32;;;;;;;44.90;25.77;;;7.00;93.60;;;;;;5088191;28;20450;-73
2022/12/02 04:08:00;;;;;;;46.30;24.80;;;7.00;93.60;;;;;;5087461;28;20456;-73
2022/12/02 04:10:27;;;;;;;47.77;25.83;;;7.00;93.60;;;;;;5087926;28;20449;-73
2022/12/02 04:12:54;;;;;;;45.90;26.07;;;7.00;93.60;;;;;;5087607;28;20461;-73
2022/12/02 04:15:21;;;;;;;48.50;25.00;;;7.00;93.60;;;;;;5087538;28;20455;-73
2022/12/02 04:17:47;;;;;;;40.40;25.77;;;7.00;93.70;;;;;;5087951;28;20456;-73
2022/12/02 04:20:14;;;;;;;46.97;25.27;;;7.00;93.70;;;;;;5086921;28;20441;-73
2022/12/02 04:22:41;;;;;;;44.20;27.27;;;7.00;93.80;;;;;;5086751;28;21029;-73
2022/12/02 04:25:09;;;;;;;44.13;25.20;;;7.00;93.70;;;;;;5086206;28;20449;-73
2022/12/02 04:27:36;;;;;;;42.60;24.57;;;7.00;93.70;;;;;;5086763;28;20775;-73
2022/12/02 04:30:03;;;;;;;42.07;25.70;;;6.90;93.70;;;;;;5085992;28;20448;-73
2022/12/02 04:32:30;;;;;;;44.53;26.33;;;6.90;93.70;;;;;;5085970;28;20828;-74
2022/12/02 04:34:57;;;;;;;47.13;26.00;;;6.90;93.70;;;;;;5086450;28;20437;-73
2022/12/02 04:37:23;;;;;;;50.70;26.00;;;6.90;93.70;;;;;;5085552;28;20464;-73
2022/12/02 04:39:50;;;;;;;46.50;26.30;;;6.90;93.70;;;;;;5085016;28;20450;-73
2022/12/02 04:42:18;;;;;;;50.10;30.40;;;6.80;93.80;;;;;;5085792;28;20486;-73
2022/12/02 04:44:45;;;;;;;46.93;26.57;;;6.80;93.90;;;;;;5085959;28;20454;-73
2022/12/02 04:47:12;;;;;;;46.67;26.50;;;6.90;94.00;;;;;;5085780;28;20445;-73
2022/12/02 04:49:40;;;;;;;49.73;27.50;;;6.80;93.90;;;;;;5085778;28;20450;-73
2022/12/02 04:52:07;;;;;;;52.30;29.60;;;6.80;94.10;;;;;;5085543;28;20441;-73
2022/12/02 04:54:33;;;;;;;53.83;29.50;;;6.80;94.10;;;;;;5085541;28;20460;-73
2022/12/02 04:57:00;;;;;;;53.37;28.90;;;6.80;94.10;;;;;;5086397;28;20458;-73
2022/12/02 04:59:28;;;;;;;55.60;28.33;;;6.80;94.10;;;;;;5092205;28;20440;-72
2022/12/02 05:01:55;;;;;;;47.83;28.37;;;6.80;94.20;;;;;;5090274;28;20433;-73
2022/12/02 05:04:21;;;;;;;57.93;30.50;;;6.80;94.20;;;;;;5089514;28;20522;-73
2022/12/02 05:06:48;;;;;;;56.03;29.50;;;6.80;94.20;;;;;;5088730;28;20451;-73
2022/12/02 05:09:15;;;;;;;52.93;30.17;;;6.80;94.10;;;;;;5089785;28;20462;-73
2022/12/02 05:11:42;;;;;;;51.63;27.20;;;6.80;94.10;;;;;;5088815;28;20803;-73
2022/12/02 05:14:08;;;;;;;52.20;28.97;;;6.80;94.20;;;;;;5088517;28;20472;-73
2022/12/02 05:16:37;;;;;;;53.43;28.80;;;6.80;94.30;;;;;;5089010;28;20449;-73
2022/12/02 05:19:03;;;;;;;51.30;29.13;;;6.80;94.40;;;;;;5084769;28;20441;-72
2022/12/02 05:21:30;;;;;;;55.13;29.13;;;6.80;94.40;;;;;;5085869;28;20970;-73
2022/12/02 05:23:57;;;;;;;49.00;28.10;;;6.80;94.40;;;;;;5087843;28;20484;-73
2022/12/02 05:26:23;;;;;;;53.03;29.63;;;6.80;94.30;;;;;;5089347;28;20471;-73
2022/12/02 05:28:50;;;;;;;53.80;30.00;;;6.80;94.30;;;;;;5091405;28;20445;-72
2022/12/02 05:31:17;;;;;;;55.87;28.53;;;6.80;94.30;;;;;;5092719;28;20805;-73
2022/12/02 05:33:45;;;;;;;52.43;29.00;;;6.80;94.40;;;;;;5090682;28;20457;-73
2022/12/02 05:36:12;;;;;;;52.20;30.23;;;6.80;94.40;;;;;;5092003;28;20445;-74
2022/12/02 05:38:38;;;;;;;51.10;27.33;;;6.70;94.50;;;;;;5091927;28;20498;-72
2022/12/02 05:41:06;;;;;;;47.57;28.27;;;6.70;94.60;;;;;;5093424;28;20429;-73
2022/12/02 05:43:37;;;;;;;51.00;27.43;;;6.70;94.60;;;;;;5092606;28;20500;-73
2022/12/02 05:46:10;;;;;;;55.13;28.80;;;6.70;94.70;;;;;;5090551;28;20432;-73
2022/12/02 05:48:37;;;;;;;53.67;28.17;;;6.70;94.60;;;;;;5091728;28;20432;-73
2022/12/02 05:51:11;;;;;;;55.90;27.07;;;6.70;94.60;;;;;;5091558;28;20449;-73
2022/12/02 05:53:40;;;;;;;54.13;28.70;;;6.70;94.60;;;;;;5084229;28;20471;-73
2022/12/02 05:56:10;;;;;;;49.37;28.03;;;6.70;94.60;;;;;;5087905;28;20497;-73
2022/12/02 05:58:38;;;;;;;52.80;26.83;;;6.70;94.80;;;;;;5087291;28;20824;-73
2022/12/02 06:01:20;;;;;;;55.23;28.67;;;6.70;94.80;;;;;;5088499;28;20423;-73
2022/12/02 06:03:47;;;;;;;57.77;27.40;;;6.70;94.90;;;;;;5086665;28;20492;-73
2022/12/02 06:06:16;;;;;;;50.37;27.77;;;6.70;94.90;;;;;;5086364;28;20452;-73
2022/12/02 06:08:43;;;;;;;53.40;28.60;;;6.70;95.00;;;;;;5085720;28;20456;-73
2022/12/02 06:11:23;;;;;;;52.70;27.67;;;6.70;94.90;;;;;;5084885;28;20472;-73
2022/12/02 06:13:50;;;;;;;52.80;27.60;;;6.80;94.90;;;;;;5068004;28;20469;-73
2022/12/02 06:16:24;;;;;;;51.83;27.37;;;6.70;94.90;;;;;;5085425;28;20433;-73
2022/12/02 06:18:51;;;;;;;53.80;26.30;;;6.70;94.90;;;;;;5087482;28;20429;-72
2022/12/02 06:21:22;;;;;;;52.93;27.07;;;6.80;95.00;;;;;;5088209;28;20452;-72
2022/12/02 06:23:52;;;;;;;52.93;27.17;;;6.80;95.00;;;;;;5088443;28;20483;-72
2022/12/02 06:26:21;;;;;;;53.47;28.23;;;6.80;95.10;;;;;;5088614;28;20448;-73
2022/12/02 06:28:52;;;;;;;52.27;27.07;;;6.80;95.00;;;;;;5089414;28;20489;-73
2022/12/02 06:31:22;;;;;;;48.23;25.47;;;6.80;95.10;;;;;;5088249;28;20431;-73
2022/12/02 06:33:50;;;;;;;50.27;26.33;;;6.80;95.20;;;;;;5089206;28;20523;-73
2022/12/02 06:36:22;;;;;;;55.10;28.17;;;6.80;95.20;;;;;;5083552;28;20451;-73
2022/12/02 06:38:51;;;;;;;46.80;24.80;;;6.80;95.30;;;;;;5081070;28;20430;-73
2022/12/02 06:41:21;;;;;;;52.30;27.13;;;6.80;95.20;;;;;;5080267;28;20452;-74
2022/12/02 06:46:29;;;;;;;50.67;27.33;;;6.80;95.40;;;;;;5082762;28;20460;-73
2022/12/02 06:48:57;;;;;;;52.33;26.67;;;6.80;95.40;;;;;;5082293;28;20502;-72
2022/12/02 06:51:25;;;;;;;49.17;26.03;;;6.80;95.30;;;;;;5082316;28;20440;-72
2022/12/02 06:53:52;;;;;;;51.17;26.80;;;6.80;95.30;;;;;;5083218;28;20983;-73
2022/12/02 06:56:25;;;;;;;56.33;26.53;;;6.80;95.30;;;;;;5084995;28;20437;-73
2022/12/02 06:58:58;;;;;;;55.27;25.73;;;6.80;95.40;;;;;;5085825;28;20452;-73
2022/12/02 07:01:30;;;;;;;52.20;26.57;;;6.80;95.30;;;;;;5090005;28;20426;-73
2022/12/02 07:04:29;;;;;;;56.70;29.27;;;6.80;95.30;;;;;;5090650;28;20566;-73
2022/12/02 07:07:02;;;;;;;53.30;25.33;;;6.80;95.30;;;;;;5090465;28;20917;-73
2022/12/02 07:09:36;;;;;;;48.73;25.67;;;6.80;95.40;;;;;;5087189;28;20436;-73
2022/12/02 07:12:10;;;;;;;49.23;25.13;;;6.80;95.30;;;;;;5087720;28;20427;-72
2022/12/02 07:14:44;;;;;;;47.53;25.70;;;6.80;95.30;;;;;;5087201;28;20462;-72
2022/12/02 07:17:20;;;;;;;54.83;28.43;;;6.80;95.40;;;;;;5088144;28;20433;-72
2022/12/02 07:19:50;;;;;;;47.70;26.97;;;6.80;95.40;;;;;;5084470;28;20490;-73
2022/12/02 07:22:20;;;;;;;51.77;26.90;;;6.80;95.40;;;;;;5077572;28;20502;-73
2022/12/02 07:24:53;;;;;;;49.27;26.77;;;6.80;95.40;;;;;;5081765;28;20429;-73
2022/12/02 07:27:24;;;;;;;49.13;25.47;;;6.80;95.50;;;;;;5081374;28;20429;-73
2022/12/02 07:29:52;;;;;;;48.53;24.57;;;6.80;95.60;;;;;;5080573;28;20525;-73
2022/12/02 07:32:19;;;;;;;55.27;26.20;;;6.80;95.70;;;;;;5085157;28;20491;-73
2022/12/02 07:34:46;;;;;;;49.57;23.70;;;6.80;95.70;;;;;;5095611;28;20474;-73
2022/12/02 07:37:13;;;;;;;48.93;23.80;;;6.80;95.70;;;;;;5098148;28;20444;-72
2022/12/02 07:39:41;;;;;;;45.47;23.27;;;6.80;95.70;;;;;;5095419;28;20452;-73
2022/12/02 07:42:08;;;;;;;44.90;22.73;;;6.80;95.80;;;;;;5091422;28;20452;-73
2022/12/02 07:44:34;;;;;;;43.97;23.50;;;6.80;95.80;;;;;;5093436;28;20477;-74
2022/12/02 07:47:02;;;;;;;44.03;22.87;;;6.80;95.80;;;;;;5094067;28;20445;-73
2022/12/02 07:49:29;;;;;;;50.73;25.30;;;6.80;95.90;;;;;;5097150;28;20483;-73
2022/12/02 07:51:56;;;;;;;45.30;23.60;;;6.80;95.90;;;;;;5094214;28;20445;-73
2022/12/02 07:54:23;;;;;;;45.93;25.90;;;6.80;95.90;;;;;;5091511;28;20498;-73
2022/12/02 07:56:51;;;;;;;46.73;24.40;;;6.80;95.90;;;;;;5084548;28;20449;-73
2022/12/02 07:59:18;;;;;;;51.13;24.60;;;6.80;96.00;;;;;;5086808;28;20460;-72
2022/12/02 08:01:45;;;;;;;44.03;23.67;;;6.80;96.00;;;;;;5084839;28;20453;-73
2022/12/02 08:04:11;;;;;;;47.93;24.40;;;6.80;96.00;;;;;;5084284;28;20546;-73
2022/12/02 08:06:38;;;;;;;45.63;24.27;;;6.80;96.00;;;;;;5090385;28;20441;-73
2022/12/02 08:09:05;;;;;;;46.93;22.80;;;6.80;96.10;;;;;;5087699;28;20440;-73
2022/12/02 08:11:32;;;;;;;45.97;24.00;;;6.80;96.10;;;;;;5084194;28;20439;-73
2022/12/02 08:14:00;;;;;;;47.77;24.10;;;6.80;96.10;;;;;;5080129;28;20838;-73
2022/12/02 08:16:26;;;;;;;45.57;25.97;;;6.80;96.20;;;;;;5083907;28;20453;-72
2022/12/02 08:18:53;;;;;;;45.80;23.37;;;6.80;96.20;;;;;;5084502;28;20429;-73
2022/12/02 08:21:20;;;;;;;49.50;25.37;;;6.80;96.30;;;;;;5086344;28;20444;-73
2022/12/02 08:23:47;;;;;;;45.43;24.30;;;6.80;96.30;;;;;;5084705;28;20485;-73
2022/12/02 08:26:14;;;;;;;46.00;26.30;;;6.80;96.40;;;;;;5085334;28;20455;-73
2022/12/02 08:28:41;;;;;;;48.50;26.70;;;6.80;96.50;;;;;;5086633;28;20449;-73
2022/12/02 08:31:09;;;;;;;50.47;25.30;;;6.70;96.60;;;;;;5089772;28;20470;-72
2022/12/02 08:33:36;;;;;;;55.33;26.87;;;6.70;96.60;;;;;;5090678;28;20471;-72
2022/12/02 08:36:03;;;;;;;57.20;26.63;;;6.70;96.80;;;;;;5090232;28;20443;-72
2022/12/02 08:38:30;;;;;;;58.50;27.77;;;6.80;96.80;;;;;;5089566;28;20445;-71
2022/12/02 08:40:56;;;;;;;63.30;30.80;;;6.80;96.90;;;;;;5088713;28;20441;-71
2022/12/02 08:43:23;;;;;;;59.30;28.97;;;6.70;96.80;;;;;;5088919;28;20484;-70
2022/12/02 08:45:50;;;;;;;69.63;30.33;;;6.70;96.80;;;;;;5085948;28;20443;-70
2022/12/02 08:48:18;;;;;;;66.63;31.87;;;6.70;96.90;;;;;;5074628;28;20448;-70
2022/12/02 08:50:45;;;;;;;61.33;30.00;;;6.70;97.00;;;;;;5074590;28;20470;-70
2022/12/02 08:53:12;;;;;;;74.07;31.60;;;6.70;97.20;;;;;;5076014;28;20465;-70
2022/12/02 08:55:39;;;;;;;67.20;30.67;;;6.70;97.20;;;;;;5075762;28;20447;-70
2022/12/02 08:58:06;;;;;;;72.23;32.47;;;6.70;97.30;;;;;;5075210;28;20942;-70
2022/12/02 09:00:33;;;;;;;74.63;32.67;;;6.70;97.30;;;;;;5074790;28;20437;-69
2022/12/02 09:02:59;;;;;;;73.70;32.77;;;6.70;97.30;;;;;;5075418;28;20475;-70
2022/12/02 09:05:27;;;;;;;69.90;31.77;;;6.60;97.40;;;;;;5075615;28;20450;-70
2022/12/02 09:07:54;;;;;;;78.80;34.30;;;6.60;97.50;;;;;;5075831;28;20444;-70
2022/12/02 09:10:21;;;;;;;77.77;33.30;;;6.60;97.60;;;;;;5074663;28;20782;-70
2022/12/02 09:12:48;;;;;;;74.80;32.60;;;6.60;97.60;;;;;;5075007;28;20477;-70
2022/12/02 09:15:14;;;;;;;76.93;34.23;;;6.60;97.50;;;;;;5075119;28;20476;-70
2022/12/02 09:17:41;;;;;;;72.53;32.53;;;6.60;97.50;;;;;;5076023;28;20429;-71
2022/12/02 09:20:08;;;;;;;72.93;35.40;;;6.70;97.60;;;;;;5074968;28;20431;-70
2022/12/02 09:22:36;;;;;;;78.87;32.73;;;6.70;97.60;;;;;;5074361;28;20987;-70
2022/12/02 09:25:04;;;;;;;79.93;33.13;;;6.70;97.60;;;;;;5074866;28;20488;-70
2022/12/02 09:27:31;;;;;;;70.90;33.57;;;6.70;97.60;;;;;;5075088;28;20445;-71
2022/12/02 09:29:57;;;;;;;78.20;33.30;;;6.70;97.60;;;;;;5075216;28;20440;-71
2022/12/02 09:32:24;;;;;;;81.87;34.07;;;6.70;97.60;;;;;;5076089;28;20490;-70
2022/12/02 09:34:51;;;;;;;65.27;32.60;;;6.70;97.60;;;;;;5076281;28;20444;-70
2022/12/02 09:37:18;;;;;;;78.20;34.50;;;6.70;97.60;;;;;;5076212;28;20457;-70
2022/12/02 09:39:48;;;;;;;83.33;35.77;;;6.70;97.50;;;;;;5075800;28;20448;-70
2022/12/02 09:42:16;;;;;;;68.27;32.97;;;6.70;97.40;;;;;;5075456;28;20474;-70
2022/12/02 09:44:44;;;;;;;78.27;33.47;;;6.70;97.40;;;;;;5077188;28;20484;-70
2022/12/02 09:47:11;;;;;;;72.60;34.10;;;6.70;97.40;;;;;;5081059;28;20443;-70
2022/12/02 09:49:39;;;;;;;71.30;34.50;;;6.70;97.50;;;;;;5082272;28;20440;-70
2022/12/02 09:52:12;;;;;;;75.60;33.73;;;6.70;97.30;;;;;;5081833;28;20435;-70
2022/12/02 09:54:39;;;;;;;73.23;34.77;;;6.70;97.30;;;;;;5082691;28;20509;-70
2022/12/02 09:57:09;;;;;;;79.50;37.00;;;6.70;97.30;;;;;;5083727;28;20938;-70
2022/12/02 09:59:36;;;;;;;62.87;32.13;;;6.70;97.40;;;;;;5083748;28;20429;-71
2022/12/02 10:02:03;;;;;;;59.90;31.47;;;6.70;97.30;;;;;;5082960;28;20429;-71
2022/12/02 10:04:30;;;;;;;74.70;33.77;;;6.70;97.40;;;;;;5081325;28;20992;-71
2022/12/02 10:06:57;;;;;;;64.60;33.43;;;6.70;97.50;;;;;;5081808;28;20432;-71
2022/12/02 10:09:28;;;;;;;63.30;31.80;;;6.70;97.50;;;;;;5084127;28;20912;-70
2022/12/02 10:11:55;;;;;;;57.70;30.50;;;6.80;97.50;;;;;;5087330;28;20441;-71
2022/12/02 10:14:23;;;;;;;70.73;33.60;;;6.80;97.40;;;;;;5091449;28;20480;-71
2022/12/02 10:16:52;;;;;;;63.13;29.60;;;6.80;97.30;;;;;;5093402;28;20431;-71
2022/12/02 10:19:20;;;;;;;62.50;31.30;;;6.80;97.30;;;;;;5093953;28;20435;-71
2022/12/02 10:21:47;;;;;;;57.93;30.87;;;6.80;97.20;;;;;;5089553;28;20980;-71
2022/12/02 10:24:14;;;;;;;57.47;31.13;;;6.80;97.20;;;;;;5084421;28;20536;-70
2022/12/02 10:26:47;;;;;;;64.03;34.50;;;6.80;97.40;;;;;;5080011;28;20802;-71
2022/12/02 10:29:18;;;;;;;64.50;34.00;;;6.90;97.10;;;;;;5080099;28;20489;-71
2022/12/02 10:31:57;;;;;;;59.57;31.13;;;6.90;96.90;;;;;;5079430;28;20749;-70
2022/12/02 10:34:25;;;;;;;61.93;31.87;;;6.90;96.80;;;;;;5079014;28;20923;-71
2022/12/02 10:36:52;;;;;;;61.90;31.17;;;6.90;96.80;;;;;;5078805;28;20476;-71
2022/12/02 10:39:25;;;;;;;62.07;32.90;;;6.90;96.90;;;;;;5077522;28;20967;-71
2022/12/02 10:42:12;;;;;;;55.97;31.63;;;6.90;96.80;;;;;;5077986;28;20437;-71
2022/12/02 10:44:42;;;;;;;58.10;31.50;;;6.90;96.70;;;;;;5077584;28;20475;-71
2022/12/02 10:47:17;;;;;;;57.30;31.17;;;6.90;96.80;;;;;;5077569;28;20430;-72
2022/12/02 10:49:47;;;;;;;54.00;29.40;;;6.90;96.70;;;;;;5077786;28;20436;-71
2022/12/02 10:52:16;;;;;;;53.80;29.10;;;6.90;96.70;;;;;;5077819;28;20472;-70
2022/12/02 10:54:46;;;;;;;56.97;28.60;;;6.80;96.70;;;;;;5089511;28;20442;-70
2022/12/02 10:57:23;;;;;;;44.83;27.13;;;6.90;96.80;;;;;;5076407;28;20426;-72
2022/12/02 10:59:50;;;;;;;53.80;27.53;;;6.80;96.60;;;;;;5077664;28;20432;-71
2022/12/02 11:02:22;;;;;;;42.80;27.30;;;6.80;96.70;;;;;;5077044;28;20983;-70
2022/12/02 11:04:49;;;;;;;43.50;25.67;;;6.90;96.70;;;;;;5076848;28;20475;-72
2022/12/02 11:07:17;;;;;;;43.07;24.53;;;6.90;96.80;;;;;;5077309;28;20451;-72
2022/12/02 11:09:46;;;;;;;43.33;26.50;;;6.90;96.80;;;;;;5076820;28;20445;-72
2022/12/02 11:12:34;;;;;;;45.50;26.37;;;6.90;96.60;;;;;;5076714;28;20499;-72
2022/12/02 11:15:02;;;;;;;48.07;26.87;;;6.90;96.30;;;;;;5077087;28;20916;-72
2022/12/02 11:17:49;;;;;;;44.80;26.53;;;7.00;96.30;;;;;;5077048;28;20787;-72
2022/12/02 11:20:30;;;;;;;53.73;29.07;;;6.90;96.00;;;;;;5076684;28;20440;-72
2022/12/02 11:23:18;;;;;;;41.00;26.80;;;6.90;96.10;;;;;;5076593;28;20473;-73
2022/12/02 11:26:09;;;;;;;44.40;26.40;;;6.90;96.10;;;;;;5076843;28;20465;-73
2022/12/02 11:28:59;;;;;;;40.80;25.63;;;6.90;96.10;;;;;;5081465;28;20433;-72
2022/12/02 11:31:26;;;;;;;48.07;26.67;;;6.80;95.90;;;;;;5077138;28;20428;-72
2022/12/02 11:34:21;;;;;;;42.47;25.83;;;6.80;96.10;;;;;;5076194;28;20458;-72
2022/12/02 11:37:26;;;;;;;43.37;26.70;;;6.80;96.10;;;;;;5076225;28;20551;-72
2022/12/02 11:39:54;;;;;;;38.87;24.70;;;6.80;96.10;;;;;;5076632;28;20443;-73
2022/12/02 11:42:23;;;;;;;39.60;25.83;;;6.80;96.10;;;;;;5077563;28;20457;-73
2022/12/02 11:44:51;;;;;;;39.53;25.57;;;6.90;96.10;;;;;;5077018;28;20490;-72
2022/12/02 11:47:29;;;;;;;38.43;24.90;;;6.90;95.90;;;;;;5079126;28;20456;-73
2022/12/02 11:50:09;;;;;;;42.50;26.90;;;6.90;95.70;;;;;;5079319;28;20435;-72
2022/12/02 11:52:39;;;;;;;39.00;24.50;;;6.90;95.70;;;;;;5077582;28;20462;-73
2022/12/02 11:55:14;;;;;;;38.23;23.97;;;6.90;95.70;;;;;;5078000;28;20428;-73
2022/12/02 11:57:46;;;;;;;41.40;26.07;;;6.90;95.40;;;;;;5080683;28;20432;-73
2022/12/02 12:00:26;;;;;;;45.30;26.00;;;6.90;95.50;;;;;;5078277;28;20430;-73
2022/12/02 12:03:13;;;;;;;36.50;25.00;;;6.90;95.60;;;;;;5076250;28;20471;-73
2022/12/02 12:05:43;;;;;;;38.33;24.43;;;7.00;95.60;;;;;;5075946;28;20468;-74
2022/12/02 12:08:10;;;;;;;37.80;22.47;;;7.00;95.50;;;;;;5077949;28;20433;-72
2022/12/02 12:10:39;;;;;;;39.60;24.00;;;7.10;95.30;;;;;;5077730;28;20792;-73
2022/12/02 12:13:22;;;;;;;37.13;24.23;;;7.10;95.30;;;;;;5076532;28;20483;-72
2022/12/02 12:15:55;;;;;;;37.37;24.87;;;7.10;95.10;;;;;;5077063;28;20515;-72
2022/12/02 12:18:39;;;;;;;31.90;23.57;;;7.10;95.10;;;;;;5077562;28;20474;-72
2022/12/02 12:21:09;;;;;;;34.93;23.07;;;7.20;95.10;;;;;;5075955;28;20436;-72
2022/12/02 12:23:37;;;;;;;39.67;25.03;;;7.30;95.10;;;;;;5075999;28;20479;-72
2022/12/02 12:26:06;;;;;;;36.67;24.03;;;7.30;95.00;;;;;;5076534;28;20491;-72
2022/12/02 12:28:34;;;;;;;34.30;23.60;;;7.40;94.90;;;;;;5077138;28;20438;-72
2022/12/02 12:31:04;;;;;;;36.87;25.00;;;7.40;94.80;;;;;;5077512;28;20434;-72
2022/12/02 12:33:31;;;;;;;34.97;24.33;;;7.40;94.80;;;;;;5076051;28;20483;-72
2022/12/02 12:35:59;;;;;;;33.60;22.50;;;7.50;94.70;;;;;;5076437;28;20431;-72
2022/12/02 12:38:28;;;;;;;37.87;24.63;;;7.50;94.30;;;;;;5075997;28;21017;-72
2022/12/02 12:40:56;;;;;;;38.33;22.23;;;7.40;93.90;;;;;;5076259;28;20442;-72
2022/12/02 12:43:23;;;;;;;32.50;23.53;;;7.40;94.20;;;;;;5076124;28;20484;-72
2022/12/02 12:45:50;;;;;;;31.57;22.70;;;7.40;94.30;;;;;;5075772;28;20477;-72
2022/12/02 12:48:17;;;;;;;36.13;24.00;;;7.40;94.20;;;;;;5075804;28;20436;-72
2022/12/02 12:50:43;;;;;;;35.40;25.50;;;7.50;94.10;;;;;;5076141;28;21002;-73